createdAt,value
2023-04-13T00:00:12.856Z,11.90
2023-04-13T00:02:40.087Z,11.90
2023-04-13T00:05:08.291Z,11.90
2023-04-13T00:07:38.260Z,12.00
2023-04-13T00:10:06.877Z,12.00
2023-04-13T00:12:34.503Z,12.00
2023-04-13T00:15:01.950Z,12.00
2023-04-13T00:17:28.925Z,12.00
2023-04-13T00:19:58.019Z,12.00
2023-04-13T00:22:25.541Z,12.00
2023-04-13T00:24:55.648Z,12.00
2023-04-13T00:27:23.247Z,12.00
2023-04-13T00:29:50.191Z,12.00
2023-04-13T00:32:17.032Z,12.00
2023-04-13T00:34:45.511Z,12.00
2023-04-13T00:37:13.502Z,12.00
2023-04-13T00:39:40.869Z,11.90
2023-04-13T00:42:10.711Z,11.90
2023-04-13T00:44:38.047Z,11.90
2023-04-13T00:47:05.374Z,11.90
2023-04-13T00:49:35.898Z,11.90
2023-04-13T00:52:03.120Z,11.90
2023-04-13T00:54:30.108Z,11.90
2023-04-13T00:56:58.883Z,11.90
2023-04-13T00:59:27.413Z,11.90
2023-04-13T01:01:58.935Z,11.90
2023-04-13T01:04:27.849Z,11.90
2023-04-13T01:07:01.040Z,11.90
2023-04-13T01:09:32.627Z,11.90
2023-04-13T01:12:18.171Z,11.90
2023-04-13T01:14:49.442Z,11.80
2023-04-13T01:17:28.880Z,11.80
2023-04-13T01:19:57.001Z,11.80
2023-04-13T01:22:28.896Z,11.80
2023-04-13T01:25:15.126Z,11.80
2023-04-13T01:27:47.247Z,11.80
2023-04-13T01:30:19.294Z,11.80
2023-04-13T01:32:46.319Z,11.80
2023-04-13T01:35:13.581Z,11.80
2023-04-13T01:37:43.336Z,11.80
2023-04-13T01:40:11.420Z,11.80
2023-04-13T01:42:39.195Z,11.80
2023-04-13T01:45:26.548Z,11.80
2023-04-13T01:48:11.946Z,11.80
2023-04-13T01:50:43.611Z,11.80
2023-04-13T01:53:13.054Z,11.80
2023-04-13T01:55:42.290Z,11.80
2023-04-13T01:58:13.384Z,11.70
2023-04-13T02:00:40.583Z,11.70
2023-04-13T02:03:08.999Z,11.70
2023-04-13T02:05:37.116Z,11.70
2023-04-13T02:08:05.677Z,11.70
2023-04-13T02:10:34.331Z,11.60
2023-04-13T02:13:01.723Z,11.60
2023-04-13T02:15:29.007Z,11.60
2023-04-13T02:17:55.902Z,11.50
2023-04-13T02:20:23.093Z,11.60
2023-04-13T02:22:50.002Z,11.50
2023-04-13T02:25:17.613Z,11.60
2023-04-13T02:27:45.590Z,11.50
2023-04-13T02:30:12.656Z,11.50
2023-04-13T02:32:40.907Z,11.50
2023-04-13T02:35:11.739Z,11.50
2023-04-13T02:37:41.790Z,11.50
2023-04-13T02:40:12.376Z,11.50
2023-04-13T02:42:39.669Z,11.50
2023-04-13T02:45:07.750Z,11.50
2023-04-13T02:47:34.912Z,11.50
2023-04-13T02:50:02.233Z,11.50
2023-04-13T02:52:29.340Z,11.50
2023-04-13T02:54:56.912Z,11.50
2023-04-13T02:57:24.235Z,11.50
2023-04-13T02:59:51.715Z,11.50
2023-04-13T03:02:19.425Z,11.40
2023-04-13T03:04:46.522Z,11.40
2023-04-13T03:07:14.662Z,11.40
2023-04-13T03:09:41.650Z,11.40
2023-04-13T03:12:09.336Z,11.40
2023-04-13T03:14:38.303Z,11.40
2023-04-13T03:17:05.532Z,11.40
2023-04-13T03:19:32.918Z,11.40
2023-04-13T03:21:59.806Z,11.30
2023-04-13T03:24:27.962Z,11.30
2023-04-13T03:26:57.166Z,11.30
2023-04-13T03:29:24.636Z,11.30
2023-04-13T03:31:51.706Z,11.30
2023-04-13T03:34:18.854Z,11.20
2023-04-13T03:36:46.029Z,11.20
2023-04-13T03:39:12.967Z,11.20
2023-04-13T03:41:39.927Z,11.10
2023-04-13T03:44:07.661Z,11.10
2023-04-13T03:46:37.805Z,11.10
2023-04-13T03:49:08.945Z,11.10
2023-04-13T03:51:36.352Z,11.10
2023-04-13T03:54:03.598Z,11.10
2023-04-13T03:56:31.506Z,11.10
2023-04-13T03:58:58.385Z,11.10
2023-04-13T04:01:25.570Z,11.10
2023-04-13T04:03:56.228Z,11.10
2023-04-13T04:06:24.422Z,11.00
2023-04-13T04:08:51.555Z,11.00
2023-04-13T04:11:18.574Z,11.00
2023-04-13T04:13:45.443Z,11.00
2023-04-13T04:16:12.457Z,11.00
2023-04-13T04:18:39.500Z,11.00
2023-04-13T04:21:07.035Z,11.00
2023-04-13T04:23:34.975Z,11.00
2023-04-13T04:26:03.325Z,10.90
2023-04-13T04:28:30.719Z,10.90
2023-04-13T04:31:01.352Z,10.90
2023-04-13T04:33:28.611Z,10.90
2023-04-13T04:35:56.406Z,10.90
2023-04-13T04:38:23.727Z,10.90
2023-04-13T04:40:51.091Z,10.80
2023-04-13T04:43:17.960Z,10.80
2023-04-13T04:45:47.243Z,10.80
2023-04-13T04:48:15.148Z,10.80
2023-04-13T04:50:45.070Z,10.80
2023-04-13T04:53:12.522Z,10.80
2023-04-13T04:55:39.752Z,10.70
2023-04-13T04:58:06.922Z,10.70
2023-04-13T05:00:35.514Z,10.60
2023-04-13T05:03:02.611Z,10.50
2023-04-13T05:05:32.471Z,10.50
2023-04-13T05:08:00.200Z,10.40
2023-04-13T05:10:30.317Z,10.40
2023-04-13T05:12:57.272Z,10.40
2023-04-13T05:15:24.271Z,10.30
2023-04-13T05:17:51.273Z,10.30
2023-04-13T05:20:19.495Z,10.30
2023-04-13T05:22:46.398Z,10.30
2023-04-13T05:25:13.534Z,10.20
2023-04-13T05:27:40.432Z,10.20
2023-04-13T05:30:09.015Z,10.20
2023-04-13T05:32:35.951Z,10.20
2023-04-13T05:35:04.557Z,10.20
2023-04-13T05:37:32.102Z,10.20
2023-04-13T05:39:58.941Z,10.30
2023-04-13T05:42:25.952Z,10.30
2023-04-13T05:44:52.875Z,10.30
2023-04-13T05:47:22.158Z,10.30
2023-04-13T05:49:49.031Z,10.30
2023-04-13T05:52:16.406Z,10.20
2023-04-13T05:54:43.438Z,10.20
2023-04-13T05:57:10.424Z,10.20
2023-04-13T05:59:37.681Z,10.20
2023-04-13T06:02:04.969Z,10.20
2023-04-13T06:04:32.207Z,10.20
2023-04-13T06:06:59.316Z,10.20
2023-04-13T06:09:26.329Z,10.10
2023-04-13T06:11:54.529Z,10.10
2023-04-13T06:14:22.375Z,10.10
2023-04-13T06:16:49.646Z,10.10
2023-04-13T06:19:16.652Z,10.10
2023-04-13T06:21:43.496Z,10.00
2023-04-13T06:24:10.433Z,10.00
2023-04-13T06:26:37.673Z,9.90
2023-04-13T06:29:04.674Z,10.00
2023-04-13T06:31:32.139Z,9.90
2023-04-13T06:33:59.152Z,10.00
2023-04-13T06:36:26.162Z,10.00
2023-04-13T06:38:53.069Z,10.00
2023-04-13T06:41:20.056Z,10.00
2023-04-13T06:43:47.812Z,10.00
2023-04-13T06:46:14.950Z,10.00
2023-04-13T06:48:41.991Z,10.00
2023-04-13T06:51:08.832Z,10.00
2023-04-13T06:53:35.874Z,10.00
2023-04-13T06:56:02.796Z,10.00
2023-04-13T06:58:29.692Z,10.00
2023-04-13T07:00:56.618Z,10.00
2023-04-13T07:03:23.698Z,10.00
2023-04-13T07:05:50.893Z,9.90
2023-04-13T07:08:19.518Z,9.90
2023-04-13T07:10:47.230Z,9.90
2023-04-13T07:13:14.230Z,9.80
2023-04-13T07:15:42.876Z,9.80
2023-04-13T07:18:09.816Z,9.70
2023-04-13T07:20:38.408Z,9.70
2023-04-13T07:23:05.688Z,9.70
2023-04-13T07:25:34.303Z,9.80
2023-04-13T07:28:01.699Z,9.70
2023-04-13T07:30:28.573Z,9.70
2023-04-13T07:32:55.507Z,9.70
2023-04-13T07:35:22.423Z,9.80
2023-04-13T07:37:52.232Z,9.80
2023-04-13T07:40:19.921Z,9.90
2023-04-13T07:42:49.786Z,9.90
2023-04-13T07:45:18.160Z,9.90
2023-04-13T07:47:45.127Z,10.00
2023-04-13T07:50:12.176Z,10.00
2023-04-13T07:52:39.381Z,10.00
2023-04-13T07:55:07.214Z,10.00
2023-04-13T07:57:34.238Z,10.00
2023-04-13T08:00:01.108Z,10.00
2023-04-13T08:02:28.084Z,10.00
2023-04-13T08:04:55.238Z,10.10
2023-04-13T08:07:23.298Z,10.10
2023-04-13T08:09:52.711Z,10.10
2023-04-13T08:12:19.768Z,10.20
2023-04-13T08:14:46.893Z,10.20
2023-04-13T08:17:13.866Z,10.20
2023-04-13T08:19:41.214Z,10.20
2023-04-13T08:22:10.271Z,10.20
2023-04-13T08:24:37.199Z,10.20
2023-04-13T08:27:06.308Z,10.20
2023-04-13T08:29:33.175Z,10.20
2023-04-13T08:32:01.580Z,10.20
2023-04-13T08:34:28.569Z,10.20
2023-04-13T08:36:55.502Z,10.20
2023-04-13T08:39:22.483Z,10.20
2023-04-13T08:41:49.576Z,10.20
2023-04-13T08:44:17.781Z,10.20
2023-04-13T08:46:46.276Z,10.20
2023-04-13T08:49:13.658Z,10.20
2023-04-13T08:51:43.656Z,10.20
2023-04-13T08:54:12.980Z,10.20
2023-04-13T08:56:45.944Z,10.20
2023-04-13T08:59:15.886Z,10.20
2023-04-13T09:01:45.286Z,10.20
2023-04-13T09:04:14.123Z,10.30
2023-04-13T09:06:42.804Z,10.30
2023-04-13T09:09:11.172Z,10.30
2023-04-13T09:11:38.143Z,10.30
2023-04-13T09:14:05.131Z,10.30
2023-04-13T09:16:39.047Z,10.30
2023-04-13T09:19:05.993Z,10.30
2023-04-13T09:21:39.992Z,10.40
2023-04-13T09:24:07.424Z,10.40
2023-04-13T09:26:45.557Z,10.40
2023-04-13T09:29:16.896Z,10.40
2023-04-13T09:31:45.641Z,10.40
2023-04-13T09:34:13.249Z,10.40
2023-04-13T09:36:52.755Z,10.40
2023-04-13T09:39:29.270Z,10.40
2023-04-13T09:41:56.812Z,10.40
2023-04-13T09:44:35.142Z,10.40
2023-04-13T09:47:03.106Z,10.40
2023-04-13T09:49:40.740Z,10.40
2023-04-13T09:52:18.345Z,10.30
2023-04-13T09:54:49.326Z,10.30
2023-04-13T09:57:23.124Z,10.30
2023-04-13T09:59:50.905Z,10.40
2023-04-13T10:02:18.815Z,10.40
2023-04-13T10:04:46.036Z,10.40
2023-04-13T10:07:13.524Z,10.40
2023-04-13T10:09:42.554Z,10.40
2023-04-13T10:12:12.204Z,10.30
2023-04-13T10:14:41.042Z,10.30
2023-04-13T10:17:23.220Z,10.30
2023-04-13T10:19:51.461Z,10.30
2023-04-13T10:22:20.411Z,10.30
2023-04-13T10:24:47.379Z,10.20
2023-04-13T10:27:16.544Z,10.20
2023-04-13T10:29:43.556Z,10.20
2023-04-13T10:32:20.301Z,10.20
2023-04-13T10:34:47.622Z,10.20
2023-04-13T10:37:19.811Z,10.30
2023-04-13T10:39:47.566Z,10.20
2023-04-13T10:42:17.231Z,10.30
2023-04-13T10:44:49.255Z,10.30
2023-04-13T10:47:20.648Z,10.30
2023-04-13T10:49:48.686Z,10.40
2023-04-13T10:52:16.423Z,10.40
2023-04-13T10:54:43.682Z,10.40
2023-04-13T10:57:11.808Z,10.50
2023-04-13T10:59:53.595Z,10.50
2023-04-13T11:02:25.148Z,10.60
2023-04-13T11:04:52.857Z,10.60
2023-04-13T11:07:23.011Z,10.60
2023-04-13T11:09:52.839Z,10.60
2023-04-13T11:12:19.942Z,10.60
2023-04-13T11:14:50.668Z,10.60
2023-04-13T11:17:19.226Z,10.60
2023-04-13T11:19:50.571Z,10.60
2023-04-13T11:22:19.136Z,10.70
2023-04-13T11:24:47.630Z,10.70
2023-04-13T11:27:21.880Z,10.70
2023-04-13T11:29:58.841Z,10.70
2023-04-13T11:32:26.649Z,10.70
2023-04-13T11:34:54.016Z,10.70
2023-04-13T11:37:21.921Z,10.80
2023-04-13T11:39:50.763Z,10.80
2023-04-13T11:42:17.715Z,10.80
2023-04-13T11:44:46.468Z,10.80
2023-04-13T11:47:15.951Z,10.90
2023-04-13T11:49:48.089Z,10.90
2023-04-13T11:52:15.940Z,10.90
2023-04-13T11:54:45.197Z,10.90
2023-04-13T11:57:12.540Z,10.90
2023-04-13T11:59:39.749Z,10.90
2023-04-13T12:04:39.368Z,10.80
2023-04-13T12:07:16.571Z,10.80
2023-04-13T12:09:56.359Z,10.80
2023-04-13T12:15:14.057Z,10.80
2023-04-13T12:20:33.308Z,10.80
2023-04-13T12:25:35.803Z,10.90
2023-04-13T12:28:03.580Z,10.90
2023-04-13T12:30:30.691Z,10.90
2023-04-13T12:32:57.664Z,10.90
2023-04-13T12:35:24.691Z,10.90
2023-04-13T12:37:52.689Z,10.80
2023-04-13T12:40:20.401Z,10.80
2023-04-13T12:42:47.403Z,10.70
2023-04-13T12:45:15.216Z,10.70
2023-04-13T12:47:42.283Z,10.70
2023-04-13T12:50:10.695Z,10.70
2023-04-13T12:52:38.750Z,10.70
2023-04-13T12:55:05.891Z,10.70
2023-04-13T12:57:32.804Z,10.80
2023-04-13T12:59:59.901Z,10.80
2023-04-13T13:02:28.408Z,10.90
2023-04-13T13:04:57.254Z,10.90
2023-04-13T13:07:24.417Z,10.90
2023-04-13T13:09:52.005Z,10.90
2023-04-13T13:12:19.145Z,10.90
2023-04-13T13:14:46.118Z,10.80
2023-04-13T13:17:13.048Z,10.80
2023-04-13T13:19:39.967Z,10.80
2023-04-13T13:22:06.916Z,10.80
2023-04-13T13:24:33.915Z,10.80
2023-04-13T13:27:37.521Z,10.80
2023-04-13T13:29:47.743Z,10.80
2023-04-13T13:32:14.731Z,10.80
2023-04-13T13:34:41.901Z,10.80
2023-04-13T13:37:09.219Z,10.80
2023-04-13T13:39:37.721Z,10.70
2023-04-13T13:42:04.810Z,10.70
2023-04-13T13:44:31.782Z,10.70
2023-04-13T13:46:58.719Z,10.60
2023-04-13T13:49:25.648Z,10.60
2023-04-13T13:51:52.667Z,10.50
2023-04-13T13:54:20.636Z,10.50
2023-04-13T13:56:47.574Z,10.40
2023-04-13T13:59:14.955Z,10.40
2023-04-13T14:01:42.031Z,10.40
2023-04-13T14:04:09.060Z,10.40
2023-04-13T14:06:36.120Z,10.40
2023-04-13T14:09:04.127Z,10.30
2023-04-13T14:11:32.085Z,10.30
2023-04-13T14:14:07.877Z,10.30
2023-04-13T14:16:41.917Z,10.30
2023-04-13T14:19:08.798Z,10.30
2023-04-13T14:21:36.178Z,10.30
2023-04-13T14:24:03.042Z,10.30
2023-04-13T14:26:29.944Z,10.40
2023-04-13T14:28:57.206Z,10.40
2023-04-13T14:31:24.459Z,10.40
2023-04-13T14:33:52.223Z,10.40
2023-04-13T14:36:19.484Z,10.40
2023-04-13T14:38:46.424Z,10.40
2023-04-13T14:41:13.297Z,10.50
2023-04-13T14:43:40.473Z,10.50
2023-04-13T14:46:09.290Z,10.50
2023-04-13T14:48:36.370Z,10.50
2023-04-13T14:51:03.575Z,10.50
2023-04-13T14:53:30.971Z,10.50
2023-04-13T14:55:58.208Z,10.40
2023-04-13T14:58:25.694Z,10.40
2023-04-13T15:00:52.759Z,10.40
2023-04-13T15:03:20.203Z,10.40
2023-04-13T15:05:48.575Z,10.40
2023-04-13T15:08:16.956Z,10.40
2023-04-13T15:10:44.080Z,10.50
2023-04-13T15:13:11.173Z,10.50
2023-04-13T15:15:38.561Z,10.50
2023-04-13T15:18:06.708Z,10.60
2023-04-13T15:20:33.812Z,10.60
2023-04-13T15:23:00.803Z,10.60
2023-04-13T15:25:27.915Z,10.70
2023-04-13T15:27:55.713Z,10.70
2023-04-13T15:30:27.414Z,10.70
2023-04-13T15:32:58.733Z,10.70
2023-04-13T15:35:27.295Z,10.60
2023-04-13T15:37:54.982Z,10.60
2023-04-13T15:40:23.181Z,10.60
2023-04-13T15:42:50.027Z,10.50
2023-04-13T15:45:16.934Z,10.50
2023-04-13T15:47:44.066Z,10.40
2023-04-13T15:50:11.281Z,10.40
2023-04-13T15:52:41.201Z,10.40
2023-04-13T15:55:08.506Z,10.40
2023-04-13T15:57:35.653Z,10.40
2023-04-13T16:00:04.527Z,10.40
2023-04-13T16:02:31.715Z,10.40
2023-04-13T16:04:58.846Z,10.30
2023-04-13T16:07:25.874Z,10.30
2023-04-13T16:09:58.561Z,10.30
2023-04-13T16:12:33.249Z,10.30
2023-04-13T16:15:00.547Z,10.30
2023-04-13T16:17:34.122Z,10.20
2023-04-13T16:20:27.978Z,10.20
2023-04-13T16:22:59.338Z,10.20
2023-04-13T16:25:26.244Z,10.20
2023-04-13T16:27:54.910Z,10.20
2023-04-13T16:30:23.849Z,10.20
2023-04-13T16:32:51.000Z,10.20
2023-04-13T16:35:19.434Z,10.20
2023-04-13T16:37:46.899Z,10.20
2023-04-13T16:40:15.540Z,10.20
2023-04-13T16:42:42.598Z,10.20
2023-04-13T16:45:13.821Z,10.20
2023-04-13T16:47:42.459Z,10.30
2023-04-13T16:50:10.117Z,10.30
2023-04-13T16:52:38.993Z,10.30
2023-04-13T16:55:06.252Z,10.20
2023-04-13T16:57:33.401Z,10.20
2023-04-13T17:00:07.277Z,10.20
2023-04-13T17:02:34.541Z,10.20
2023-04-13T17:05:01.662Z,10.20
2023-04-13T17:07:28.627Z,10.20
2023-04-13T17:09:55.727Z,10.20
2023-04-13T17:12:23.206Z,10.20
2023-04-13T17:14:50.178Z,10.10
2023-04-13T17:17:17.139Z,10.10
2023-04-13T17:19:44.197Z,10.10
2023-04-13T17:22:11.824Z,10.00
2023-04-13T17:24:38.885Z,10.00
2023-04-13T17:27:06.726Z,10.00
2023-04-13T17:29:36.524Z,10.00
2023-04-13T17:32:03.937Z,9.90
2023-04-13T17:34:30.876Z,9.90
2023-04-13T17:36:58.302Z,9.90
2023-04-13T17:39:25.241Z,9.90
2023-04-13T17:41:52.207Z,10.00
2023-04-13T17:44:19.167Z,10.00
2023-04-13T17:46:46.305Z,10.00
2023-04-13T17:49:13.314Z,10.00
2023-04-13T17:51:40.525Z,10.00
2023-04-13T17:54:09.373Z,10.00
2023-04-13T17:56:36.467Z,9.90
2023-04-13T17:59:03.451Z,9.90
2023-04-13T18:01:31.153Z,9.90
2023-04-13T18:03:59.347Z,9.90
2023-04-13T18:06:27.688Z,9.90
2023-04-13T18:08:55.299Z,9.90
2023-04-13T18:11:22.482Z,9.90
2023-04-13T18:13:49.501Z,9.90
2023-04-13T18:16:16.557Z,9.90
2023-04-13T18:18:43.527Z,9.90
2023-04-13T18:21:10.578Z,9.90
2023-04-13T18:23:37.560Z,9.90
2023-04-13T18:26:04.571Z,9.90
2023-04-13T18:28:34.490Z,9.90
2023-04-13T18:31:01.534Z,9.90
2023-04-13T18:33:29.632Z,9.80
2023-04-13T18:35:56.642Z,9.80
2023-04-13T18:38:23.638Z,9.90
2023-04-13T18:40:50.992Z,9.80
2023-04-13T18:43:18.018Z,9.80
2023-04-13T18:45:46.678Z,9.80
2023-04-13T18:48:19.542Z,9.80
2023-04-13T18:51:00.180Z,9.80
2023-04-13T18:53:28.758Z,9.80
2023-04-13T18:55:57.747Z,9.80
2023-04-13T18:58:24.726Z,9.80
2023-04-13T19:00:51.936Z,9.70
2023-04-13T19:03:19.160Z,9.70
2023-04-13T19:05:46.456Z,9.70
2023-04-13T19:08:14.004Z,9.70
2023-04-13T19:10:41.956Z,9.70
2023-04-13T19:13:09.189Z,9.70
2023-04-13T19:15:36.642Z,9.70
2023-04-13T19:18:04.685Z,9.70
2023-04-13T19:20:31.725Z,9.60
2023-04-13T19:22:58.758Z,9.60
2023-04-13T19:25:26.004Z,9.60
2023-04-13T19:27:53.016Z,9.60
2023-04-13T19:30:21.747Z,9.60
2023-04-13T19:32:50.108Z,9.70
2023-04-13T19:35:19.498Z,9.60
2023-04-13T19:37:46.536Z,9.60
2023-04-13T19:40:14.323Z,9.60
2023-04-13T19:42:41.884Z,9.60
2023-04-13T19:45:09.708Z,9.60
2023-04-13T19:47:42.052Z,9.70
2023-04-13T19:50:10.095Z,9.60
2023-04-13T19:52:37.582Z,9.60
2023-04-13T19:55:04.867Z,9.60
2023-04-13T19:57:31.806Z,9.60
2023-04-13T19:59:58.931Z,9.60
2023-04-13T20:02:26.498Z,9.60
2023-04-13T20:04:54.793Z,9.60
2023-04-13T20:07:22.839Z,9.60
2023-04-13T20:09:49.943Z,9.60
2023-04-13T20:12:16.854Z,9.60
2023-04-13T20:14:45.373Z,9.50
2023-04-13T20:17:13.137Z,9.50
2023-04-13T20:19:40.169Z,9.50
2023-04-13T20:22:07.294Z,9.50
2023-04-13T20:24:34.292Z,9.50
2023-04-13T20:27:01.207Z,9.50
2023-04-13T20:29:28.124Z,9.50
2023-04-13T20:31:55.360Z,9.50
2023-04-13T20:34:24.655Z,9.50
2023-04-13T20:36:58.739Z,9.50
2023-04-13T20:39:30.138Z,9.50
2023-04-13T20:41:57.420Z,9.40
2023-04-13T20:44:24.536Z,9.50
2023-04-13T20:46:54.967Z,9.50
2023-04-13T20:49:23.314Z,9.50
2023-04-13T20:51:53.713Z,9.40
2023-04-13T20:54:20.664Z,9.40
2023-04-13T20:56:49.267Z,9.40
2023-04-13T20:59:17.153Z,9.40
2023-04-13T21:01:44.225Z,9.40
2023-04-13T21:04:11.450Z,9.40
2023-04-13T21:06:38.448Z,9.40
2023-04-13T21:09:06.113Z,9.40
2023-04-13T21:11:33.574Z,9.40
2023-04-13T21:14:00.693Z,9.30
2023-04-13T21:16:28.279Z,9.30
2023-04-13T21:18:55.441Z,9.30
2023-04-13T21:21:23.573Z,9.30
2023-04-13T21:23:53.823Z,9.30
2023-04-13T21:26:21.125Z,9.30
2023-04-13T21:28:48.280Z,9.30
2023-04-13T21:31:15.667Z,9.30
2023-04-13T21:33:43.125Z,9.30
2023-04-13T21:38:41.161Z,9.30
2023-04-13T21:41:15.378Z,9.30
2023-04-13T21:43:42.935Z,9.20
2023-04-13T21:46:10.494Z,9.20
2023-04-13T21:48:37.425Z,9.20
2023-04-13T21:51:05.734Z,9.20
2023-04-13T21:53:32.994Z,9.10
2023-04-13T21:56:01.026Z,9.10
2023-04-13T21:58:30.391Z,9.10
2023-04-13T22:00:57.246Z,9.10
2023-04-13T22:03:24.318Z,9.10
2023-04-13T22:05:51.363Z,9.10
2023-04-13T22:08:18.326Z,9.10
2023-04-13T22:10:45.412Z,9.10
2023-04-13T22:13:12.306Z,9.00
2023-04-13T22:15:39.244Z,9.00
2023-04-13T22:18:06.277Z,8.90
2023-04-13T22:20:34.294Z,8.90
2023-04-13T22:23:01.337Z,8.90
2023-04-13T22:25:28.177Z,8.90
2023-04-13T22:27:55.116Z,8.80
2023-04-13T22:30:22.077Z,8.90
2023-04-13T22:32:49.204Z,8.90
2023-04-13T22:35:16.239Z,8.80
2023-04-13T22:37:43.292Z,8.80
2023-04-13T22:40:10.633Z,8.80
2023-04-13T22:42:37.594Z,8.80
2023-04-13T22:45:04.639Z,8.80
2023-04-13T22:47:31.614Z,8.80
2023-04-13T22:49:59.929Z,8.80
2023-04-13T22:52:27.400Z,8.80
2023-04-13T22:54:54.322Z,8.80
2023-04-13T22:57:21.836Z,8.80
2023-04-13T22:59:48.758Z,8.80
2023-04-13T23:02:15.838Z,8.80
2023-04-13T23:04:43.336Z,8.80
2023-04-13T23:07:10.469Z,8.80
2023-04-13T23:09:37.361Z,8.80
2023-04-13T23:12:04.438Z,8.70
2023-04-13T23:14:31.320Z,8.80
2023-04-13T23:16:58.363Z,8.80
2023-04-13T23:19:25.463Z,8.80
2023-04-13T23:21:52.518Z,8.70
2023-04-13T23:24:19.384Z,8.70
2023-04-13T23:26:46.409Z,8.70
2023-04-13T23:29:13.542Z,8.70
2023-04-13T23:31:40.817Z,8.70
2023-04-13T23:34:07.740Z,8.70
2023-04-13T23:36:34.775Z,8.70
2023-04-13T23:39:01.994Z,8.70
2023-04-13T23:41:29.194Z,8.70
2023-04-13T23:43:56.086Z,8.70
2023-04-13T23:46:23.815Z,8.70
2023-04-13T23:48:50.803Z,8.70
2023-04-13T23:51:17.677Z,8.70
2023-04-13T23:53:44.626Z,8.70
2023-04-13T23:56:11.520Z,8.70
2023-04-13T23:58:38.486Z,8.70
